Harry B. Settoon — WDE5658 — position and weather

sailwx.info

Track history (hours):
 
Tides and Currents Weather Stations Pressure Air Temp Water Temp Dewpoint Dewpoint Depression Visibility Wind Speed Wind Dir Waves Ship Positions

Harry B. Settoon

Owner: Settoon Towing, LLC, Houma, LA. More information available from US FCC via Universal Licensing System and Coast Guard Vessel Documentation Center.

Last reported at 2016-Jul-24 21:32 UTC. Time now 2016-Jul-24 22:24 UTC.
Position N 29°34' W 090°33'.

; draft 1.8 m.

Type: Tug. MMSI: 367369920.

Date/timePositionNaut miles runAvg speedWind from/ knotsBaromVisibWave heightAir tempDewpointWater temp
2016-Jul-24 21:32N 29°34' W 090°33'5 5.6
2016-Jul-24 20:33N 29°35' W 090°39'4 3.8
2016-Jul-24 19:33N 29°35' W 090°43'0 0.0
2016-Jul-24 18:33N 29°35' W 090°43'0 0.1
2016-Jul-24 17:33N 29°35' W 090°43'3 3.0
2016-Jul-24 16:33N 29°33' W 090°45'11 0.3
2016-Jul-22 22:33N 29°35' W 090°57'6 5.5
2016-Jul-22 21:32N 29°32' W 090°52'5 5.4
2016-Jul-22 20:33N 29°33' W 090°46'5 4.7
2016-Jul-22 19:33N 29°36' W 090°43'5 4.9
2016-Jul-22 18:33N 29°35' W 090°37'5 5.3
2016-Jul-22 17:33N 29°34' W 090°31'21 4.8
2016-Jul-22 13:10N 29°43' W 090°10'3 5.5
2016-Jul-22 12:33N 29°46' W 090°08'3 3.4
2016-Jul-22 11:32N 29°47' W 090°04'4 4.4
2016-Jul-22 10:33N 29°51' W 090°02'5 5.0
2016-Jul-22 09:33N 29°55' W 089°58'1 0.5
2016-Jul-22 08:34N 29°55' W 089°58'0 0.0
2016-Jul-22 07:34N 29°55' W 089°58'0 0.0
2016-Jul-22 05:33N 29°55' W 089°58'3 1.3
2016-Jul-22 03:33N 29°53' W 089°57'7 0.4
2016-Jul-21 07:04N 29°46' W 090°01'5 9.2
2016-Jul-21 06:34N 29°51' W 089°59'6 5.5
2016-Jul-21 05:34N 29°55' W 089°55'8 7.5
2016-Jul-21 04:33N 29°56' W 090°03'2 2.4
2016-Jul-21 03:34N 29°54' W 090°05'4 4.0
2016-Jul-21 02:33N 29°51' W 090°04'27 5.0
2016-Jul-20 21:14N 29°33' W 090°27'5 6.7
2016-Jul-20 20:32N 29°34' W 090°33'6 6.4
2016-Jul-20 19:33N 29°36' W 090°39'4 4.0
2016-Jul-20 18:33N 29°34' W 090°43'6 5.5
2016-Jul-20 17:32N 29°32' W 090°50'8 0.4
2016-Jul-19 20:12N 29°36' W 090°58'2 0.0
2016-Jul-18 02:24N 29°34' W 090°57'5 5.9
2016-Jul-18 01:32N 29°32' W 090°52'5 5.6
2016-Jul-18 00:34N 29°33' W 090°45'5 5.1
2016-Jul-17 23:34N 29°37' W 090°42'5 5.1
2016-Jul-17 22:33N 29°35' W 090°37'6 5.8
2016-Jul-17 21:32N 29°34' W 090°30'4 0.1
2016-Jul-16 14:29N 29°33' W 090°26'2 1.9
2016-Jul-16 13:33N 29°33' W 090°28'0 0.0
2016-Jul-16 12:33N 29°33' W 090°28'0 0.0
2016-Jul-16 11:33N 29°33' W 090°28'0 0.0
2016-Jul-16 10:33N 29°33' W 090°28'0 0.0
2016-Jul-16 09:33N 29°33' W 090°28'0 0.0
2016-Jul-16 08:33N 29°33' W 090°28'0 0.0
2016-Jul-16 07:33N 29°33' W 090°28'0 0.0
2016-Jul-16 06:33N 29°33' W 090°28'0 0.0
2016-Jul-16 04:33N 29°33' W 090°28'0 0.0
2016-Jul-16 03:33N 29°33' W 090°28'0 0.0
2016-Jul-16 02:33N 29°33' W 090°28'0 0.0
2016-Jul-16 01:32N 29°33' W 090°28'0 0.0
2016-Jul-16 00:33N 29°33' W 090°28'0 0.0
2016-Jul-15 23:33N 29°33' W 090°28'0 0.0
2016-Jul-15 22:33N 29°33' W 090°28'5 5.3
2016-Jul-15 21:33N 29°34' W 090°34'6 6.0
2016-Jul-15 20:33N 29°36' W 090°40'3 3.1
2016-Jul-15 19:34N 29°34' W 090°43'6 6.1
2016-Jul-15 18:33N 29°28' W 090°43'4 4.0
2016-Jul-15 17:32N 29°24' W 090°46'10 3.2
2016-Jul-15 14:32N 29°23' W 090°57'3 0.3
2016-Jul-15 03:33N 29°23' W 090°54'5 4.8
2016-Jul-15 02:33N 29°25' W 090°49'5 4.7
2016-Jul-15 01:34N 29°23' W 090°44'7 7.0
2016-Jul-15 00:33N 29°30' W 090°43'4 3.8
2016-Jul-14 23:33N 29°34' W 090°45'  
Track history (hours):
 
Tides and Currents Weather Stations Pressure Air Temp Water Temp Dewpoint Dewpoint Depression Visibility Wind Speed Wind Dir Waves Ship Positions

Harry B. Settoon

Owner: Settoon Towing, LLC, Houma, LA. More information available from US FCC via Universal Licensing System and Coast Guard Vessel Documentation Center.

Last reported at 2016-Jul-24 21:32 UTC. Time now 2016-Jul-24 22:24 UTC.
Position N 29°34' W 090°33'.

; draft 1.8 m.

Type: Tug. MMSI: 367369920.

Date/timePositionNaut miles runAvg speedWind from/ knotsBaromVisibWave heightAir tempDewpointWater temp
2016-Jul-24 21:32N 29°34' W 090°33'5 5.6
2016-Jul-24 20:33N 29°35' W 090°39'4 3.8
2016-Jul-24 19:33N 29°35' W 090°43'0 0.0
2016-Jul-24 18:33N 29°35' W 090°43'0 0.1
2016-Jul-24 17:33N 29°35' W 090°43'3 3.0
2016-Jul-24 16:33N 29°33' W 090°45'11 0.3
2016-Jul-22 22:33N 29°35' W 090°57'6 5.5
2016-Jul-22 21:32N 29°32' W 090°52'5 5.4
2016-Jul-22 20:33N 29°33' W 090°46'5 4.7
2016-Jul-22 19:33N 29°36' W 090°43'5 4.9
2016-Jul-22 18:33N 29°35' W 090°37'5 5.3
2016-Jul-22 17:33N 29°34' W 090°31'21 4.8
2016-Jul-22 13:10N 29°43' W 090°10'3 5.5
2016-Jul-22 12:33N 29°46' W 090°08'3 3.4
2016-Jul-22 11:32N 29°47' W 090°04'4 4.4
2016-Jul-22 10:33N 29°51' W 090°02'5 5.0
2016-Jul-22 09:33N 29°55' W 089°58'1 0.5
2016-Jul-22 08:34N 29°55' W 089°58'0 0.0
2016-Jul-22 07:34N 29°55' W 089°58'0 0.0
2016-Jul-22 05:33N 29°55' W 089°58'3 1.3
2016-Jul-22 03:33N 29°53' W 089°57'7 0.4
2016-Jul-21 07:04N 29°46' W 090°01'5 9.2
2016-Jul-21 06:34N 29°51' W 089°59'6 5.5
2016-Jul-21 05:34N 29°55' W 089°55'8 7.5
2016-Jul-21 04:33N 29°56' W 090°03'2 2.4
2016-Jul-21 03:34N 29°54' W 090°05'4 4.0
2016-Jul-21 02:33N 29°51' W 090°04'27 5.0
2016-Jul-20 21:14N 29°33' W 090°27'5 6.7
2016-Jul-20 20:32N 29°34' W 090°33'6 6.4
2016-Jul-20 19:33N 29°36' W 090°39'4 4.0
2016-Jul-20 18:33N 29°34' W 090°43'6 5.5
2016-Jul-20 17:32N 29°32' W 090°50'8 0.4
2016-Jul-19 20:12N 29°36' W 090°58'2 0.0
2016-Jul-18 02:24N 29°34' W 090°57'5 5.9
2016-Jul-18 01:32N 29°32' W 090°52'5 5.6
2016-Jul-18 00:34N 29°33' W 090°45'5 5.1
2016-Jul-17 23:34N 29°37' W 090°42'5 5.1
2016-Jul-17 22:33N 29°35' W 090°37'6 5.8
2016-Jul-17 21:32N 29°34' W 090°30'4 0.1
2016-Jul-16 14:29N 29°33' W 090°26'2 1.9
2016-Jul-16 13:33N 29°33' W 090°28'0 0.0
2016-Jul-16 12:33N 29°33' W 090°28'0 0.0
2016-Jul-16 11:33N 29°33' W 090°28'0 0.0
2016-Jul-16 10:33N 29°33' W 090°28'0 0.0
2016-Jul-16 09:33N 29°33' W 090°28'0 0.0
2016-Jul-16 08:33N 29°33' W 090°28'0 0.0
2016-Jul-16 07:33N 29°33' W 090°28'0 0.0
2016-Jul-16 06:33N 29°33' W 090°28'0 0.0
2016-Jul-16 04:33N 29°33' W 090°28'0 0.0
2016-Jul-16 03:33N 29°33' W 090°28'0 0.0
2016-Jul-16 02:33N 29°33' W 090°28'0 0.0
2016-Jul-16 01:32N 29°33' W 090°28'0 0.0
2016-Jul-16 00:33N 29°33' W 090°28'0 0.0
2016-Jul-15 23:33N 29°33' W 090°28'0 0.0
2016-Jul-15 22:33N 29°33' W 090°28'5 5.3
2016-Jul-15 21:33N 29°34' W 090°34'6 6.0
2016-Jul-15 20:33N 29°36' W 090°40'3 3.1
2016-Jul-15 19:34N 29°34' W 090°43'6 6.1
2016-Jul-15 18:33N 29°28' W 090°43'4 4.0
2016-Jul-15 17:32N 29°24' W 090°46'10 3.2
2016-Jul-15 14:32N 29°23' W 090°57'3 0.3
2016-Jul-15 03:33N 29°23' W 090°54'5 4.8
2016-Jul-15 02:33N 29°25' W 090°49'5 4.7
2016-Jul-15 01:34N 29°23' W 090°44'7 7.0
2016-Jul-15 00:33N 29°30' W 090°43'4 3.8
2016-Jul-14 23:33N 29°34' W 090°45'  

Dump ship's entire track history